createdAt,value
2023-04-30T00:00:01.863Z,1015.228615741599
2023-04-30T00:15:02.451Z,1015.2868195093364
2023-04-30T00:30:02.178Z,1015.4306915351173
2023-04-30T00:45:01.857Z,1015.4973109920412
2023-04-30T01:00:02.495Z,1015.5932288862276
2023-04-30T01:15:02.092Z,1015.647762002241
2023-04-30T01:30:01.884Z,1015.597409086399
2023-04-30T01:45:01.547Z,1015.5939600940417
2023-04-30T02:00:02.147Z,1015.8223796778184
2023-04-30T02:15:01.807Z,1015.9313095867647
2023-04-30T02:30:02.475Z,1015.8817587695371
2023-04-30T02:45:02.117Z,1015.9483537172399
2023-04-30T03:00:01.707Z,1015.9983590522274
2023-04-30T03:15:02.340Z,1015.9608743591627
2023-04-30T03:30:02.000Z,1015.9070565849387
2023-04-30T03:45:01.599Z,1016.0109819660278
2023-04-30T04:00:02.262Z,1016.0396957250973
2023-04-30T04:15:01.845Z,1015.9912768524421
2023-04-30T04:30:02.138Z,1016.1824293220463
2023-04-30T04:45:01.787Z,1016.2545137578825
2023-04-30T05:00:02.450Z,1016.2797850809069
2023-04-30T05:15:02.039Z,1016.3413192318919
2023-04-30T05:30:01.667Z,1016.4519831200894
2023-04-30T05:45:02.245Z,1016.512735973954
2023-04-30T06:00:01.851Z,1016.5009582706832
2023-04-30T06:15:02.448Z,1016.484773113942
2023-04-30T06:30:02.107Z,1016.6328519642036
2023-04-30T06:45:01.782Z,1016.7088212730999
2023-04-30T07:00:02.457Z,1016.6737129811544
2023-04-30T07:15:02.154Z,1016.6770207453595
2023-04-30T07:30:01.820Z,1016.7909973623405
2023-04-30T07:45:02.466Z,1016.761897041149
2023-04-30T08:00:02.099Z,1016.834078035411
2023-04-30T08:15:01.735Z,1016.7689312418009
2023-04-30T08:30:02.471Z,1016.8256144691586
2023-04-30T08:45:02.080Z,1016.7153772874855
2023-04-30T09:00:01.748Z,1016.685337818983
2023-04-30T09:15:02.476Z,1016.6071574190303
2023-04-30T09:30:02.155Z,1016.605780463659
2023-04-30T09:45:01.769Z,1016.660639940481
2023-04-30T10:00:02.447Z,1016.3400718494096
2023-04-30T10:15:02.010Z,1016.267166589251
2023-04-30T10:30:01.630Z,1016.1284398118028
2023-04-30T10:45:02.241Z,1016.089785310357
2023-04-30T11:00:01.862Z,1016.0137637647329
2023-04-30T11:15:02.534Z,1015.838720751354
2023-04-30T11:30:02.210Z,1015.7172672240733
2023-04-30T11:45:01.789Z,1015.5217134492035
2023-04-30T12:00:02.431Z,1015.4076587038155
2023-04-30T12:15:01.999Z,1015.2350706394986
2023-04-30T12:30:01.656Z,1015.1224799397675
2023-04-30T12:45:02.231Z,1015.003136246541
2023-04-30T13:00:01.921Z,1014.8713315950381
2023-04-30T13:15:02.557Z,1014.6168437502341
2023-04-30T13:30:02.192Z,1014.4752330262455
2023-04-30T13:45:01.865Z,1014.3625008447199
2023-04-30T14:00:02.686Z,1014.2972955688767
2023-04-30T14:15:02.325Z,1014.2092403490162
2023-04-30T14:30:02.013Z,1014.0620004137764
2023-04-30T14:45:01.659Z,1013.9404346317492
2023-04-30T15:00:02.368Z,1013.838990933502
2023-04-30T15:15:01.987Z,1013.8258694419412
2023-04-30T15:30:01.717Z,1013.7139621447462
2023-04-30T15:45:02.334Z,1013.6511242879474
2023-04-30T16:00:01.967Z,1013.4388810823635
2023-04-30T16:15:01.602Z,1013.3514653670877
2023-04-30T16:30:02.306Z,1013.1753691300028
2023-04-30T16:45:01.918Z,1013.0602990494564
2023-04-30T17:00:02.518Z,1013.0125679303774
2023-04-30T17:15:02.122Z,1012.9695863000081
2023-04-30T17:30:01.744Z,1012.813639637109
2023-04-30T17:45:02.401Z,1012.7685936377679
2023-04-30T18:00:02.058Z,1012.7389933868701
2023-04-30T18:15:01.648Z,1012.7005144473259
2023-04-30T18:30:02.256Z,1012.6239267888216
2023-04-30T18:45:01.901Z,1012.5774024346571
2023-04-30T19:00:02.532Z,1012.4988880250849
2023-04-30T19:15:02.111Z,1012.5977524192828
2023-04-30T19:30:01.827Z,1012.6059706808214
2023-04-30T19:45:02.485Z,1012.6514073909407
2023-04-30T20:00:02.113Z,1012.6790752483752
2023-04-30T20:15:01.743Z,1012.577325774373
2023-04-30T20:30:02.414Z,1012.5016431337602
2023-04-30T20:45:04.612Z,1012.3681437296956
2023-04-30T21:00:02.244Z,1012.2127049833767
2023-04-30T21:15:01.912Z,1012.2067977733102
2023-04-30T21:30:01.669Z,1012.1125037678362
2023-04-30T21:45:02.353Z,1011.9607061172518
2023-04-30T22:00:01.958Z,1011.8676201051742
2023-04-30T22:15:01.605Z,1011.7068426202009
2023-04-30T22:30:02.314Z,1011.5720020439966
2023-04-30T22:45:01.974Z,1011.4981783047126
2023-04-30T23:00:01.649Z,1011.3385005783435
2023-04-30T23:15:02.219Z,1011.3121594192506
2023-04-30T23:30:01.849Z,1011.1748033435505
2023-04-30T23:45:02.487Z,1011.1275877497401
